Time;durP1;ratioP1;P1;durP2;ratioP2;P2;SDS_P1;SDS_P2;PMS_P1;PMS_P2;Temp;Humidity;BMP_temperature;BMP_pressure;BME280_temperature;BME280_humidity;BME280_pressure;Samples;Min_cycle;Max_cycle;Signal;HPM_P1;HPM_P2
2022/08/24 00:01:08;;;;;;;4.13;1.70;;;19.40;99.90;;;;;;5025510;28;20037;-79
2022/08/24 00:03:34;;;;;;;3.80;1.88;;;19.40;99.90;;;;;;5027972;28;20121;-79
2022/08/24 00:06:00;;;;;;;4.00;2.50;;;19.30;99.90;;;;;;5025902;28;20063;-79
2022/08/24 00:08:27;;;;;;;3.05;1.63;;;19.30;99.90;;;;;;5042934;28;20032;-79
2022/08/24 00:10:53;;;;;;;2.67;2.05;;;19.30;99.90;;;;;;5007858;28;20033;-79
2022/08/24 00:13:19;;;;;;;3.25;2.13;;;19.20;99.90;;;;;;5024173;28;20033;-79
2022/08/24 00:15:45;;;;;;;3.30;2.08;;;19.20;99.90;;;;;;5058816;28;20029;-79
2022/08/24 00:18:12;;;;;;;4.22;2.30;;;19.20;99.90;;;;;;5043566;28;20497;-79
2022/08/24 00:20:38;;;;;;;3.60;2.17;;;19.20;99.90;;;;;;5020210;28;20029;-79
2022/08/24 00:23:05;;;;;;;3.20;2.17;;;19.10;99.90;;;;;;5035148;28;20482;-79
2022/08/24 00:25:31;;;;;;;3.78;2.28;;;19.00;99.90;;;;;;5020045;28;21454;-79
2022/08/24 00:27:57;;;;;;;5.05;3.10;;;19.00;99.90;;;;;;5010630;28;20059;-79
2022/08/24 00:30:23;;;;;;;4.97;2.88;;;19.10;99.90;;;;;;5040461;28;20108;-79
2022/08/24 00:32:49;;;;;;;5.70;3.00;;;18.90;99.90;;;;;;5020573;28;20040;-78
2022/08/24 00:35:19;;;;;;;5.13;2.70;;;18.90;99.90;;;;;;5041288;28;20022;-79
2022/08/24 00:37:48;;;;;;;4.35;2.90;;;18.90;99.90;;;;;;5030362;28;20029;-79
2022/08/24 00:40:21;;;;;;;2.70;2.22;;;18.80;99.90;;;;;;5024765;28;20052;-79
2022/08/24 00:42:49;;;;;;;4.72;2.92;;;18.90;99.90;;;;;;5023563;28;20045;-79
2022/08/24 00:45:16;;;;;;;5.50;2.83;;;18.90;99.90;;;;;;5025453;28;20025;-80
2022/08/24 00:47:50;;;;;;;3.75;2.40;;;18.90;99.90;;;;;;5044572;28;20027;-79
2022/08/24 00:50:25;;;;;;;3.53;2.85;;;18.80;99.90;;;;;;5022049;28;20024;-79
2022/08/24 00:52:56;;;;;;;3.10;2.80;;;18.80;99.90;;;;;;5024095;28;20404;-79
2022/08/24 00:55:29;;;;;;;4.28;2.88;;;18.70;99.90;;;;;;5024307;28;20032;-79
2022/08/24 00:57:59;;;;;;;3.53;3.22;;;18.60;99.90;;;;;;5007065;28;20025;-79
2022/08/24 01:00:30;;;;;;;4.10;3.15;;;18.60;99.90;;;;;;5042426;28;20029;-79
2022/08/24 01:03:03;;;;;;;4.38;3.85;;;18.60;99.90;;;;;;5043015;28;20493;-79
2022/08/24 01:05:30;;;;;;;3.63;3.10;;;18.60;99.90;;;;;;5039476;28;20127;-79
2022/08/24 01:07:57;;;;;;;3.55;3.30;;;18.70;99.90;;;;;;5018969;28;20110;-78
2022/08/24 01:10:26;;;;;;;4.13;3.55;;;18.70;99.90;;;;;;5025989;28;20048;-79
2022/08/24 01:12:55;;;;;;;4.90;4.03;;;18.60;99.90;;;;;;5025908;28;20024;-79
2022/08/24 01:15:21;;;;;;;6.80;4.00;;;18.60;99.90;;;;;;5041317;28;20035;-79
2022/08/24 01:20:34;;;;;;;4.90;4.05;;;18.60;99.90;;;;;;5028159;28;20037;-79
2022/08/24 01:23:27;;;;;;;4.78;3.38;;;18.50;99.90;;;;;;5044591;28;20053;-79
2022/08/24 01:25:53;;;;;;;4.10;3.63;;;18.60;99.90;;;;;;5027568;28;20025;-79
2022/08/24 01:28:20;;;;;;;3.97;3.47;;;18.60;99.90;;;;;;5024207;28;20035;-79
2022/08/24 01:30:46;;;;;;;5.65;4.05;;;18.50;99.90;;;;;;5028791;28;20021;-79
2022/08/24 01:33:23;;;;;;;4.93;3.92;;;18.50;99.90;;;;;;5063481;28;20024;-79
2022/08/24 01:35:49;;;;;;;4.10;3.70;;;18.40;99.90;;;;;;5029269;28;20045;-79
2022/08/24 01:38:16;;;;;;;4.85;3.80;;;18.50;99.90;;;;;;5027247;28;20029;-79
2022/08/24 01:40:47;;;;;;;4.85;4.03;;;18.50;99.90;;;;;;5022263;28;20037;-79
2022/08/24 01:43:13;;;;;;;5.07;4.00;;;18.40;99.90;;;;;;5010263;28;20031;-79
2022/08/24 01:45:40;;;;;;;7.18;4.85;;;18.40;99.90;;;;;;5029739;28;20033;-79
2022/08/24 01:48:06;;;;;;;5.65;5.15;;;18.40;99.90;;;;;;5015478;28;20028;-79
2022/08/24 01:50:32;;;;;;;4.80;4.35;;;18.40;99.90;;;;;;5026263;28;20026;-79
2022/08/24 01:53:01;;;;;;;6.35;5.07;;;18.40;99.90;;;;;;5046536;28;20032;-79
2022/08/24 01:55:28;;;;;;;5.93;5.30;;;18.40;99.90;;;;;;5027485;28;20021;-79
2022/08/24 01:57:54;;;;;;;7.07;5.03;;;18.40;99.90;;;;;;5029247;28;20029;-79
2022/08/24 02:00:20;;;;;;;5.55;5.10;;;18.40;99.90;;;;;;5046705;28;20025;-79
2022/08/24 02:02:46;;;;;;;5.30;4.80;;;18.40;99.90;;;;;;5027958;28;20071;-79
2022/08/24 02:05:14;;;;;;;5.57;5.03;;;18.30;99.90;;;;;;5024230;28;20056;-79
2022/08/24 02:07:39;;;;;;;6.28;5.68;;;18.30;99.90;;;;;;5039731;28;20040;-79
2022/08/24 02:10:08;;;;;;;5.88;5.28;;;18.40;99.90;;;;;;5027059;28;20032;-80
2022/08/24 02:12:36;;;;;;;7.03;6.32;;;18.40;99.90;;;;;;5027340;28;20029;-79
2022/08/24 02:15:03;;;;;;;6.03;5.07;;;18.30;99.90;;;;;;5021427;28;20017;-79
2022/08/24 02:17:29;;;;;;;5.80;5.00;;;18.20;99.90;;;;;;5011333;28;20041;-79
2022/08/24 02:19:55;;;;;;;5.80;5.13;;;18.20;99.90;;;;;;5025129;28;20070;-79
2022/08/24 02:22:20;;;;;;;5.35;4.85;;;18.30;99.90;;;;;;5046391;28;20036;-79
2022/08/24 02:24:46;;;;;;;5.95;5.40;;;18.30;99.90;;;;;;5012573;28;20025;-79
2022/08/24 02:27:15;;;;;;;5.60;5.10;;;18.30;99.90;;;;;;5028318;28;20028;-79
2022/08/24 02:29:42;;;;;;;5.75;5.18;;;18.20;99.90;;;;;;5027537;28;20480;-79
2022/08/24 02:32:08;;;;;;;6.53;5.75;;;18.20;99.90;;;;;;5026714;28;20544;-79
2022/08/24 02:34:35;;;;;;;6.25;5.65;;;18.30;99.90;;;;;;5027880;28;20496;-79
2022/08/24 02:37:00;;;;;;;7.30;5.85;;;18.20;99.90;;;;;;5059302;28;20037;-79
2022/08/24 02:39:27;;;;;;;7.60;6.10;;;18.20;99.90;;;;;;5027119;28;20032;-80
2022/08/24 02:41:53;;;;;;;7.13;6.22;;;18.10;99.90;;;;;;5044867;28;20378;-80
2022/08/24 02:44:19;;;;;;;6.43;5.82;;;18.00;99.90;;;;;;5062065;28;20033;-79
2022/08/24 02:46:46;;;;;;;7.15;6.45;;;17.90;99.90;;;;;;5022661;28;20397;-80
2022/08/24 02:49:12;;;;;;;6.43;5.80;;;17.90;99.90;;;;;;5027637;28;20025;-80
2022/08/24 02:51:43;;;;;;;5.45;4.97;;;17.90;99.90;;;;;;5028482;28;20447;-79
2022/08/24 02:54:09;;;;;;;5.78;5.20;;;17.90;99.90;;;;;;5044083;28;20032;-80
2022/08/24 02:56:35;;;;;;;7.45;6.75;;;17.90;99.90;;;;;;5040953;28;20124;-80
2022/08/24 02:59:01;;;;;;;7.07;6.25;;;17.90;99.90;;;;;;5060308;28;20115;-79
2022/08/24 03:01:28;;;;;;;6.38;5.78;;;17.70;99.90;;;;;;5022585;28;20433;-80
2022/08/24 03:03:56;;;;;;;6.68;6.07;;;17.70;99.90;;;;;;5011855;28;20116;-80
2022/08/24 03:06:22;;;;;;;6.18;5.65;;;17.70;99.90;;;;;;5028833;28;20029;-80
2022/08/24 03:08:48;;;;;;;7.80;7.00;;;17.80;99.90;;;;;;5037790;28;20112;-79
2022/08/24 03:11:13;;;;;;;8.32;6.50;;;17.70;99.90;;;;;;5040651;28;20048;-80
2022/08/24 03:13:40;;;;;;;6.30;5.70;;;17.60;99.90;;;;;;5024568;28;20040;-80
2022/08/24 03:16:06;;;;;;;6.25;5.65;;;17.70;99.90;;;;;;5025878;28;20044;-80
2022/08/24 03:18:34;;;;;;;7.55;6.38;;;17.60;99.90;;;;;;5028471;28;20021;-80
2022/08/24 03:21:01;;;;;;;7.40;6.45;;;17.60;99.90;;;;;;5059286;28;20107;-79
2022/08/24 03:23:28;;;;;;;6.18;5.68;;;17.50;99.90;;;;;;5027014;28;20035;-79
2022/08/24 03:25:55;;;;;;;8.10;6.63;;;17.60;99.90;;;;;;5010019;28;22168;-80
2022/08/24 03:28:22;;;;;;;6.97;6.38;;;17.50;99.90;;;;;;5025485;28;20025;-79
2022/08/24 03:30:49;;;;;;;6.95;6.25;;;17.50;99.90;;;;;;5019760;28;20049;-79
2022/08/24 03:33:16;;;;;;;7.78;6.97;;;17.60;99.90;;;;;;5025623;28;20489;-79
2022/08/24 03:35:42;;;;;;;8.75;6.88;;;17.50;99.90;;;;;;5024765;28;20052;-79
2022/08/24 03:38:11;;;;;;;7.32;6.72;;;17.40;99.90;;;;;;5025412;28;20025;-79
2022/08/24 03:40:37;;;;;;;7.10;6.50;;;17.40;99.90;;;;;;5035478;28;20126;-79
2022/08/24 03:43:03;;;;;;;7.68;6.97;;;17.50;99.90;;;;;;5021097;28;20477;-79
2022/08/24 03:45:29;;;;;;;6.75;6.15;;;17.50;99.90;;;;;;5044298;28;20485;-79
2022/08/24 03:47:55;;;;;;;9.57;6.72;;;17.50;99.90;;;;;;5042350;28;20504;-80
2022/08/24 03:50:23;;;;;;;8.05;7.25;;;17.30;99.90;;;;;;5026697;28;20029;-78
2022/08/24 03:52:49;;;;;;;7.60;6.90;;;17.30;99.90;;;;;;5019317;28;20052;-79
2022/08/24 03:55:17;;;;;;;6.95;6.35;;;17.20;99.90;;;;;;5020112;28;20029;-79
2022/08/24 03:57:43;;;;;;;7.30;6.05;;;17.30;99.90;;;;;;5025880;28;20021;-79
2022/08/24 04:00:11;;;;;;;8.05;7.35;;;17.40;99.90;;;;;;5024871;28;20036;-80
2022/08/24 04:02:40;;;;;;;7.88;7.07;;;17.30;99.90;;;;;;5042615;28;20079;-79
2022/08/24 04:05:07;;;;;;;8.30;6.82;;;17.30;99.90;;;;;;5021354;28;20021;-79
2022/08/24 04:07:34;;;;;;;7.70;6.80;;;17.30;99.90;;;;;;5011271;28;20037;-79
2022/08/24 04:10:00;;;;;;;8.63;7.75;;;17.20;99.90;;;;;;5040412;28;20159;-80
2022/08/24 04:12:27;;;;;;;8.02;7.22;;;17.30;99.90;;;;;;5058713;28;20033;-79
2022/08/24 04:14:54;;;;;;;7.90;7.20;;;17.30;99.90;;;;;;5026454;28;20028;-79
2022/08/24 04:17:21;;;;;;;7.40;6.72;;;17.20;99.90;;;;;;5026908;28;20031;-79
2022/08/24 04:19:56;;;;;;;7.40;6.50;;;17.20;99.90;;;;;;5035717;28;20598;-79
2022/08/24 04:22:25;;;;;;;7.82;6.72;;;17.20;99.90;;;;;;5012528;28;20051;-79
2022/08/24 04:24:51;;;;;;;7.45;6.75;;;17.10;99.90;;;;;;5020227;28;20108;-78
2022/08/24 04:27:17;;;;;;;7.70;7.00;;;17.10;99.90;;;;;;5057487;28;20124;-79
2022/08/24 04:29:43;;;;;;;8.32;7.53;;;17.10;99.90;;;;;;5041521;28;20039;-79
2022/08/24 04:32:08;;;;;;;7.55;6.85;;;17.10;99.90;;;;;;5042792;28;20107;-79
2022/08/24 04:34:35;;;;;;;7.85;7.15;;;17.10;99.90;;;;;;5010711;28;20057;-80
2022/08/24 04:37:00;;;;;;;8.27;7.47;;;17.10;99.90;;;;;;5022073;28;20047;-80
2022/08/24 04:39:27;;;;;;;7.68;7.07;;;17.10;99.90;;;;;;5019869;28;20029;-80
2022/08/24 04:42:08;;;;;;;7.63;6.75;;;17.10;99.90;;;;;;5025527;28;20040;-80
2022/08/24 04:44:36;;;;;;;8.25;7.20;;;17.20;99.90;;;;;;5018672;28;20469;-79
2022/08/24 04:47:03;;;;;;;8.63;7.15;;;17.20;99.90;;;;;;5040395;28;20029;-79
2022/08/24 04:49:29;;;;;;;7.13;6.53;;;17.20;99.90;;;;;;5009567;28;20025;-79
2022/08/24 04:51:55;;;;;;;8.02;7.25;;;17.20;99.90;;;;;;5041847;28;20025;-79
2022/08/24 04:54:21;;;;;;;8.15;7.32;;;17.10;99.90;;;;;;5023623;28;20453;-80
2022/08/24 04:56:57;;;;;;;6.93;6.32;;;17.10;99.90;;;;;;5020843;28;20111;-80
2022/08/24 04:59:23;;;;;;;7.72;6.93;;;17.00;99.90;;;;;;5059027;28;20112;-79
2022/08/24 05:01:49;;;;;;;9.57;6.22;;;17.10;99.90;;;;;;5024617;28;20033;-81
2022/08/24 05:04:15;;;;;;;5.40;4.90;;;17.30;99.90;;;;;;5041284;28;20525;-80
2022/08/24 05:06:41;;;;;;;6.63;5.90;;;17.30;99.90;;;;;;5018348;28;20043;-80
2022/08/24 05:09:08;;;;;;;6.70;5.28;;;17.40;99.90;;;;;;5025398;28;20933;-80
2022/08/24 05:11:39;;;;;;;9.05;5.72;;;17.50;99.90;;;;;;5025021;28;20044;-80
2022/08/24 05:14:25;;;;;;;7.00;6.05;;;17.50;99.90;;;;;;5035091;28;20053;-80
2022/08/24 05:16:50;;;;;;;7.05;6.43;;;17.50;99.90;;;;;;5024065;28;20021;-80
2022/08/24 05:19:16;;;;;;;6.93;6.32;;;17.40;99.90;;;;;;5042858;28;20034;-79
2022/08/24 05:21:43;;;;;;;6.53;5.93;;;17.60;99.90;;;;;;5023346;28;20041;-80
2022/08/24 05:24:09;;;;;;;6.45;5.80;;;17.50;99.90;;;;;;5008142;28;20168;-80
2022/08/24 05:26:35;;;;;;;7.32;6.70;;;17.50;99.90;;;;;;5041214;28;20145;-80
2022/08/24 05:29:01;;;;;;;7.20;6.50;;;17.60;99.90;;;;;;5009794;28;20048;-79
2022/08/24 05:31:36;;;;;;;6.65;6.05;;;17.70;99.90;;;;;;5017019;28;20029;-80
2022/08/24 05:34:07;;;;;;;8.95;7.85;;;17.70;99.90;;;;;;5006392;28;20034;-80
2022/08/24 05:36:36;;;;;;;10.15;9.15;;;17.70;99.90;;;;;;5026348;28;20056;-80
2022/08/24 05:39:09;;;;;;;9.57;8.57;;;17.70;99.90;;;;;;5006414;28;20116;-80
2022/08/24 05:41:38;;;;;;;7.57;6.88;;;17.70;99.90;;;;;;5028277;28;20048;-80
2022/08/24 05:44:10;;;;;;;7.63;6.82;;;17.80;99.90;;;;;;5026202;28;20222;-80
2022/08/24 05:46:36;;;;;;;7.60;6.85;;;17.80;99.90;;;;;;5023756;28;20029;-80
2022/08/24 05:49:03;;;;;;;7.60;6.90;;;17.90;99.90;;;;;;5019225;28;20021;-80
2022/08/24 05:51:31;;;;;;;7.72;6.97;;;18.00;99.90;;;;;;5055839;28;20478;-80
2022/08/24 05:54:03;;;;;;;6.72;6.13;;;18.00;99.90;;;;;;5018260;28;20028;-81
2022/08/24 05:56:35;;;;;;;7.72;6.93;;;18.00;99.90;;;;;;5024114;28;20036;-80
2022/08/24 05:59:01;;;;;;;9.48;6.57;;;18.10;99.90;;;;;;5021220;28;20032;-80
2022/08/24 06:01:27;;;;;;;8.52;7.00;;;18.30;99.90;;;;;;5019794;28;20017;-80
2022/08/24 06:03:56;;;;;;;9.52;8.23;;;18.40;99.90;;;;;;5041240;28;20033;-80
2022/08/24 06:06:24;;;;;;;15.30;10.07;;;18.50;99.90;;;;;;5042394;28;20041;-81
2022/08/24 06:08:52;;;;;;;9.88;8.98;;;18.50;99.90;;;;;;5025697;28;20029;-80
2022/08/24 06:11:30;;;;;;;9.00;8.13;;;18.60;99.90;;;;;;5022925;28;20124;-80
2022/08/24 06:13:59;;;;;;;8.30;7.57;;;18.60;99.90;;;;;;5024252;28;20021;-80
2022/08/24 06:16:28;;;;;;;8.65;7.65;;;18.80;99.90;;;;;;5025558;28;20028;-81
2022/08/24 06:18:53;;;;;;;8.73;7.88;;;18.90;99.90;;;;;;5028727;28;20100;-80
2022/08/24 06:21:26;;;;;;;12.10;8.73;;;19.00;99.90;;;;;;5021970;28;20116;-81
2022/08/24 06:23:52;;;;;;;10.00;8.90;;;19.10;99.90;;;;;;5042143;28;20047;-80
2022/08/24 06:29:04;;;;;;;8.23;7.43;;;19.50;99.90;;;;;;5025508;28;20081;-81
2022/08/24 06:31:36;;;;;;;9.55;8.55;;;19.70;99.90;;;;;;5012405;28;20036;-80
2022/08/24 06:34:01;;;;;;;13.82;11.93;;;19.80;99.90;;;;;;5016045;28;20025;-80
2022/08/24 06:36:27;;;;;;;14.52;13.13;;;20.00;99.90;;;;;;5012099;28;20056;-81
2022/08/24 06:38:53;;;;;;;13.15;11.85;;;20.20;99.90;;;;;;5038478;28;20114;-81
2022/08/24 06:41:20;;;;;;;14.15;12.75;;;20.40;99.90;;;;;;5010625;28;20042;-81
2022/08/24 06:43:46;;;;;;;10.48;9.48;;;20.60;99.90;;;;;;5048398;28;20419;-80
2022/08/24 06:46:13;;;;;;;10.45;9.35;;;20.80;99.90;;;;;;5027678;28;20036;-81
2022/08/24 06:48:42;;;;;;;10.50;9.55;;;21.10;99.90;;;;;;5047024;28;20025;-80
2022/08/24 06:51:12;;;;;;;10.60;9.65;;;21.30;99.90;;;;;;5030494;28;20133;-81
2022/08/24 06:53:39;;;;;;;12.30;9.15;;;21.50;99.90;;;;;;5011789;28;20564;-81
2022/08/24 06:56:06;;;;;;;6.45;5.85;;;21.80;99.90;;;;;;5027038;28;20025;-80
2022/08/24 06:58:34;;;;;;;11.90;10.48;;;22.00;99.90;;;;;;5036064;28;20029;-80
2022/08/24 07:01:16;;;;;;;12.00;10.27;;;22.00;99.90;;;;;;5027090;28;20041;-79
2022/08/24 07:03:43;;;;;;;12.50;11.27;;;22.10;99.90;;;;;;5033317;28;20032;-80
2022/08/24 07:06:28;;;;;;;9.45;8.40;;;22.30;99.90;;;;;;5046242;28;20050;-80
2022/08/24 07:08:57;;;;;;;11.30;9.75;;;22.60;99.90;;;;;;5013786;28;20110;-82
2022/08/24 07:11:25;;;;;;;9.52;8.68;;;22.80;99.90;;;;;;5048838;28;20040;-81
2022/08/24 07:13:51;;;;;;;8.88;7.22;;;23.20;99.90;;;;;;5018068;28;20392;-81
2022/08/24 07:16:19;;;;;;;10.73;9.73;;;23.10;99.90;;;;;;5045264;28;20037;-81
2022/08/24 07:18:49;;;;;;;12.65;9.35;;;23.30;99.90;;;;;;5044679;28;20162;-82
2022/08/24 07:21:18;;;;;;;6.28;5.70;;;23.40;99.90;;;;;;5019896;28;20041;-82
2022/08/24 07:23:46;;;;;;;9.02;6.80;;;23.50;99.90;;;;;;5028886;28;20025;-81
2022/08/24 07:26:18;;;;;;;13.35;10.77;;;23.80;99.90;;;;;;5028155;28;20033;-82
2022/08/24 07:28:44;;;;;;;12.52;8.95;;;23.70;99.90;;;;;;5042750;28;20022;-82
2022/08/24 07:31:12;;;;;;;9.43;8.45;;;24.00;99.90;;;;;;5062465;28;20029;-81
2022/08/24 07:33:43;;;;;;;8.85;8.02;;;24.30;99.90;;;;;;5029274;28;20040;-82
2022/08/24 07:36:09;;;;;;;13.52;8.02;;;24.50;99.90;;;;;;5027186;28;20251;-81
2022/08/24 07:38:35;;;;;;;8.82;7.93;;;24.60;99.90;;;;;;5028298;28;20419;-81
2022/08/24 07:41:01;;;;;;;7.05;6.35;;;24.80;99.90;;;;;;5045568;28;20140;-81
2022/08/24 07:43:28;;;;;;;6.30;5.22;;;25.10;99.90;;;;;;5040115;28;20507;-79
2022/08/24 07:45:53;;;;;;;6.05;5.43;;;25.30;99.90;;;;;;5027881;28;20021;-81
2022/08/24 07:48:20;;;;;;;6.55;5.53;;;25.50;99.90;;;;;;5036997;28;20390;-80
2022/08/24 07:50:46;;;;;;;5.45;4.70;;;25.80;99.90;;;;;;5021170;28;20112;-80
2022/08/24 07:53:13;;;;;;;7.53;5.15;;;26.00;99.90;;;;;;5017754;28;20036;-80
2022/08/24 07:55:39;;;;;;;5.95;5.00;;;26.10;99.90;;;;;;5026245;28;20040;-81
2022/08/24 07:58:05;;;;;;;4.75;4.05;;;26.20;99.90;;;;;;5035875;28;20029;-81
2022/08/24 08:00:31;;;;;;;5.53;4.78;;;26.30;99.90;;;;;;5044815;28;20025;-81
2022/08/24 08:03:01;;;;;;;5.97;4.07;;;26.30;99.90;;;;;;5018949;28;20123;-81
2022/08/24 08:05:29;;;;;;;2.92;2.60;;;26.60;99.90;;;;;;5030050;28;20029;-79
2022/08/24 08:07:55;;;;;;;4.63;4.10;;;26.90;99.90;;;;;;5030383;28;20033;-81
2022/08/24 08:10:22;;;;;;;6.28;4.30;;;26.90;99.90;;;;;;5041924;28;20493;-80
2022/08/24 08:12:49;;;;;;;7.00;3.90;;;26.90;99.90;;;;;;5034783;28;20033;-79
2022/08/24 08:15:14;;;;;;;4.00;2.22;;;27.10;99.90;;;;;;5037614;28;20025;-79
2022/08/24 08:17:51;;;;;;;3.38;2.08;;;27.30;99.90;;;;;;5014961;28;20259;-79
2022/08/24 08:20:17;;;;;;;4.22;2.53;;;27.40;99.90;;;;;;5027594;28;20032;-80
2022/08/24 08:25:51;;;;;;;3.53;2.15;;;27.70;99.90;;;;;;5043629;28;20025;-79
2022/08/24 08:28:24;;;;;;;3.10;2.15;;;27.90;99.90;;;;;;5025481;28;20031;-80
2022/08/24 08:30:51;;;;;;;4.75;2.35;;;27.90;99.90;;;;;;5043434;28;20143;-80
2022/08/24 08:33:17;;;;;;;6.40;2.50;;;28.20;99.90;;;;;;5024532;28;20025;-82
2022/08/24 08:35:43;;;;;;;2.60;1.83;;;28.00;99.90;;;;;;5056832;28;20480;-79
2022/08/24 08:38:10;;;;;;;2.90;1.90;;;28.00;99.90;;;;;;5019139;28;20080;-82
2022/08/24 08:41:02;;;;;;;2.58;1.10;;;28.20;99.90;;;;;;5023640;28;20126;-80
2022/08/24 08:43:31;;;;;;;1.33;0.57;;;28.60;99.90;;;;;;5041680;28;20039;-80
2022/08/24 08:46:14;;;;;;;1.95;0.77;;;28.90;99.90;;;;;;5024774;28;20027;-78
2022/08/24 08:49:33;;;;;;;1.65;0.93;;;29.10;99.90;;;;;;5042111;28;20029;-81
2022/08/24 08:52:44;;;;;;;1.98;0.98;;;28.60;99.90;;;;;;5024329;28;20055;-80
2022/08/24 08:55:31;;;;;;;1.50;0.90;;;28.80;99.90;;;;;;5025394;28;20112;-81
2022/08/24 08:57:59;;;;;;;3.15;0.90;;;29.00;99.90;;;;;;5026210;28;20497;-82
2022/08/24 09:00:42;;;;;;;3.13;0.75;;;29.20;99.90;;;;;;5042858;28;20130;-79
2022/08/24 09:03:25;;;;;;;1.50;0.50;;;29.30;99.90;;;;;;5040712;28;20275;-79
2022/08/24 09:06:45;;;;;;;1.75;0.65;;;29.40;99.90;;;;;;4945128;28;20090;-80
2022/08/24 09:09:53;;;;;;;2.00;0.77;;;29.20;99.90;;;;;;4942236;29;20059;-79
2022/08/24 09:12:46;;;;;;;1.30;0.50;;;29.10;99.90;;;;;;4942167;28;20027;-79
2022/08/24 09:15:49;;;;;;;2.35;0.50;;;29.10;99.90;;;;;;4927259;29;20043;-80
2022/08/24 09:18:35;;;;;;;0.98;0.40;;;29.20;99.90;;;;;;4928170;29;20142;-80
2022/08/24 09:21:13;;;;;;;1.45;0.50;;;29.70;99.90;;;;;;4942580;29;20042;-80
2022/08/24 09:23:59;;;;;;;1.30;0.50;;;29.60;99.90;;;;;;4925062;29;20139;-79
2022/08/24 09:26:55;;;;;;;2.63;0.50;;;29.10;99.90;;;;;;4944818;29;20043;-79
2022/08/24 09:29:58;;;;;;;1.00;0.40;;;28.90;99.90;;;;;;4926381;29;20027;-84
2022/08/24 09:32:34;;;;;;;1.48;0.40;;;28.70;99.90;;;;;;4942650;29;20035;-80
2022/08/24 09:35:13;;;;;;;3.75;0.30;;;29.20;99.90;;;;;;4941821;29;20043;-82
2022/08/24 09:37:57;;;;;;;0.88;0.40;;;29.90;99.90;;;;;;4941990;29;20047;-83
2022/08/24 09:40:34;;;;;;;0.95;0.30;;;30.00;99.90;;;;;;4977925;28;20045;-83
2022/08/24 09:43:32;;;;;;;1.08;0.30;;;30.10;99.90;;;;;;5044958;28;20110;-83
2022/08/24 09:46:25;;;;;;;0.52;0.20;;;30.50;99.90;;;;;;5045941;28;20020;-80
2022/08/24 09:49:21;;;;;;;0.70;0.20;;;30.70;99.90;;;;;;5025058;28;20029;-79
2022/08/24 09:51:55;;;;;;;0.43;0.20;;;31.10;99.90;;;;;;5046110;28;20033;-78
2022/08/24 09:55:07;;;;;;;1.02;0.20;;;31.00;99.90;;;;;;5046277;28;20016;-79
2022/08/24 09:57:43;;;;;;;0.40;0.20;;;30.70;99.90;;;;;;5045790;28;20056;-78
2022/08/24 10:00:12;;;;;;;0.30;0.20;;;30.90;99.90;;;;;;5043540;28;20107;-78
2022/08/24 10:02:38;;;;;;;0.40;0.10;;;31.30;99.90;;;;;;5028791;28;20085;-78
2022/08/24 10:05:41;;;;;;;0.63;0.20;;;31.50;99.90;;;;;;5046674;28;20028;-80
2022/08/24 10:08:18;;;;;;;0.65;0.20;;;31.20;99.90;;;;;;5045464;28;20375;-78
2022/08/24 10:11:01;;;;;;;0.85;0.10;;;30.80;99.90;;;;;;5046485;28;20037;-78
2022/08/24 10:13:46;;;;;;;0.73;0.20;;;31.30;99.90;;;;;;5044180;28;20034;-78
2022/08/24 10:16:33;;;;;;;1.02;0.20;;;30.60;99.90;;;;;;5044808;28;20342;-78
2022/08/24 10:19:35;;;;;;;0.38;0.20;;;30.90;99.90;;;;;;5043317;28;20021;-78
2022/08/24 10:22:14;;;;;;;1.55;0.25;;;31.30;99.90;;;;;;5027148;28;20033;-79
2022/08/24 10:25:10;;;;;;;0.88;0.30;;;31.30;99.90;;;;;;5046363;28;20044;-78
2022/08/24 10:27:54;;;;;;;0.70;0.25;;;31.20;99.90;;;;;;5025487;28;20028;-80
2022/08/24 10:30:46;;;;;;;0.98;0.30;;;31.00;99.90;;;;;;5045395;28;20541;-77
2022/08/24 10:33:18;;;;;;;1.15;0.30;;;30.20;99.90;;;;;;5042969;28;20420;-79
2022/08/24 10:36:21;;;;;;;1.20;0.40;;;30.20;99.90;;;;;;5043237;28;20028;-80
2022/08/24 10:45:30;;;;;;;0.80;0.20;;;31.00;99.90;;;;;;5045022;28;20044;-79
2022/08/24 10:48:30;;;;;;;0.63;0.30;;;31.80;99.90;;;;;;5044428;28;20163;-78
2022/08/24 10:51:40;;;;;;;0.40;0.20;;;31.30;99.90;;;;;;5041438;28;20029;-77
2022/08/24 10:54:11;;;;;;;0.80;0.20;;;31.50;99.90;;;;;;5023849;28;20041;-79
2022/08/24 10:57:06;;;;;;;0.57;0.15;;;31.40;99.90;;;;;;5010285;28;20032;-82
2022/08/24 11:00:13;;;;;;;0.75;0.28;;;31.80;99.90;;;;;;5043317;28;20040;-82
2022/08/24 11:02:43;;;;;;;2.08;0.20;;;32.20;99.90;;;;;;5028577;28;20056;-80
2022/08/24 11:05:13;;;;;;;0.75;0.20;;;31.40;99.90;;;;;;5045437;28;20030;-79
2022/08/24 11:07:58;;;;;;;0.65;0.20;;;31.10;99.90;;;;;;5044402;28;20034;-79
2022/08/24 11:10:30;;;;;;;0.75;0.20;;;30.80;99.90;;;;;;5044690;28;20162;-82
2022/08/24 11:13:12;;;;;;;0.60;0.20;;;31.20;99.90;;;;;;5043601;28;20024;-79
2022/08/24 11:15:47;;;;;;;0.52;0.10;;;31.30;99.90;;;;;;5045085;28;20496;-78
2022/08/24 11:18:13;;;;;;;0.50;0.10;;;31.70;99.90;;;;;;5059252;28;20401;-79
2022/08/24 11:20:41;;;;;;;0.50;0.10;;;32.70;99.90;;;;;;5044319;28;20043;-79
2022/08/24 11:23:16;;;;;;;0.30;0.10;;;32.60;99.90;;;;;;5043890;28;20108;-78
2022/08/24 11:26:01;;;;;;;0.40;0.10;;;32.90;99.90;;;;;;5025089;28;20037;-79
2022/08/24 11:28:39;;;;;;;1.42;0.20;;;32.20;99.90;;;;;;5024680;28;20025;-79
2022/08/24 11:31:11;;;;;;;0.40;0.13;;;31.60;99.90;;;;;;5045152;28;20028;-80
2022/08/24 11:33:57;;;;;;;0.55;0.20;;;31.60;99.90;;;;;;5022714;28;20071;-82
2022/08/24 11:36:27;;;;;;;0.40;0.20;;;32.00;99.90;;;;;;5024727;28;20037;-79
2022/08/24 11:39:11;;;;;;;0.70;0.20;;;32.10;99.90;;;;;;5044445;28;20029;-81
2022/08/24 11:42:03;;;;;;;1.10;0.30;;;31.10;99.90;;;;;;5022609;28;20501;-79
2022/08/24 11:44:55;;;;;;;0.60;0.20;;;31.00;99.90;;;;;;5042291;28;20021;-82
2022/08/24 11:47:42;;;;;;;1.25;0.30;;;31.20;99.90;;;;;;5028334;28;20182;-82
2022/08/24 11:50:45;;;;;;;0.63;0.20;;;30.90;99.90;;;;;;5040550;28;20025;-82
2022/08/24 11:53:39;;;;;;;1.85;0.20;;;31.40;99.90;;;;;;5044544;28;20112;-78
2022/08/24 11:56:14;;;;;;;0.40;0.10;;;32.10;99.90;;;;;;5032181;28;20084;-78
2022/08/24 11:58:47;;;;;;;0.43;0.10;;;32.10;99.90;;;;;;5044156;28;20084;-78
2022/08/24 12:01:29;;;;;;;0.93;0.20;;;31.90;99.90;;;;;;5044166;28;20374;-78
2022/08/24 12:04:20;;;;;;;1.35;0.30;;;31.00;99.90;;;;;;5022277;28;20025;-78
2022/08/24 12:07:07;;;;;;;2.05;0.30;;;30.80;99.90;;;;;;5043035;28;20112;-78
2022/08/24 12:09:52;;;;;;;0.90;0.30;;;30.40;99.90;;;;;;5044780;28;20033;-78
2022/08/24 12:12:45;;;;;;;2.92;0.30;;;30.60;99.90;;;;;;5045595;28;20021;-78
2022/08/24 12:15:19;;;;;;;0.80;0.20;;;30.50;99.90;;;;;;5043180;28;20033;-78
2022/08/24 12:18:01;;;;;;;0.77;0.30;;;30.40;99.90;;;;;;5043916;28;20381;-81
2022/08/24 12:20:40;;;;;;;0.68;0.20;;;30.40;99.90;;;;;;5024061;28;20270;-78
2022/08/24 12:23:10;;;;;;;;;;;30.50;99.90;;;;;;5024352;28;20516;-80
2022/08/24 12:28:39;;;;;;;1.48;0.25;;;31.00;99.90;;;;;;5041832;28;21907;-78
2022/08/24 12:31:26;;;;;;;1.15;0.30;;;31.30;99.90;;;;;;5024688;28;20036;-82
2022/08/24 12:33:55;;;;;;;2.72;0.20;;;31.40;99.90;;;;;;5043449;28;20559;-81
2022/08/24 12:36:48;;;;;;;;;;;31.60;99.90;;;;;;5025843;28;20032;-83
2022/08/24 12:39:20;;;;;;;0.65;0.20;;;31.60;99.90;;;;;;5041118;28;20357;-81
2022/08/24 12:42:05;;;;;;;0.60;0.10;;;31.90;99.90;;;;;;5044995;28;20045;-82
2022/08/24 12:44:41;;;;;;;0.28;0.10;;;32.30;99.90;;;;;;5044926;28;20071;-83
2022/08/24 12:47:08;;;;;;;0.40;0.10;;;32.50;99.90;;;;;;5038932;28;20112;-82
2022/08/24 12:49:44;;;;;;;0.30;0.10;;;32.60;99.90;;;;;;5019504;28;20025;-82
2022/08/24 12:52:53;;;;;;;1.35;0.10;;;32.50;99.90;;;;;;5025128;28;20025;-83
2022/08/24 12:55:37;;;;;;;;;;;32.50;99.90;;;;;;5043423;28;20473;-81
2022/08/24 12:58:44;;;;;;;0.20;0.00;;;32.50;99.90;;;;;;5043647;28;19912;-82
2022/08/24 13:01:13;;;;;;;0.30;0.10;;;32.30;99.90;;;;;;5024969;28;20455;-81
2022/08/24 13:03:41;;;;;;;1.63;0.10;;;32.20;99.90;;;;;;5027377;28;20444;-80
2022/08/24 13:06:16;;;;;;;0.32;0.10;;;32.10;99.90;;;;;;5046068;28;20032;-82
2022/08/24 13:08:45;;;;;;;0.50;0.10;;;31.60;99.90;;;;;;5039898;28;20037;-82
2022/08/24 13:11:31;;;;;;;0.60;0.10;;;31.50;99.90;;;;;;5043363;28;20048;-81
2022/08/24 13:13:56;;;;;;;1.95;0.20;;;31.00;99.90;;;;;;5042535;28;20025;-81
2022/08/24 13:16:57;;;;;;;0.40;0.20;;;30.80;99.90;;;;;;5049255;28;20023;-81
2022/08/24 13:19:22;;;;;;;3.08;0.20;;;30.70;99.90;;;;;;5047072;28;20049;-82
2022/08/24 13:22:11;;;;;;;0.80;0.20;;;30.70;99.90;;;;;;5046703;28;20118;-79
2022/08/24 13:24:57;;;;;;;0.75;0.20;;;30.90;99.90;;;;;;4915822;29;20142;-82
2022/08/24 13:27:22;;;;;;;0.73;0.10;;;31.60;99.90;;;;;;4915252;29;20090;-81
2022/08/24 13:29:52;;;;;;;1.67;0.20;;;31.60;99.90;;;;;;4930719;29;20523;-77
2022/08/24 13:32:37;;;;;;;1.90;0.10;;;31.30;99.90;;;;;;4915150;29;20551;-82
2022/08/24 13:35:38;;;;;;;0.40;0.17;;;31.40;99.90;;;;;;4915038;29;20040;-80